createdAt,value
2023-04-30T00:00:47.625Z,39.37
2023-04-30T00:03:15.804Z,39.33
2023-04-30T00:05:44.023Z,39.32
2023-04-30T00:08:12.126Z,39.37
2023-04-30T00:10:40.177Z,39.30
2023-04-30T00:13:08.599Z,39.31
2023-04-30T00:15:38.087Z,39.23
2023-04-30T00:18:07.108Z,39.21
2023-04-30T00:20:35.768Z,39.21
2023-04-30T00:23:03.897Z,39.21
2023-04-30T00:25:31.926Z,39.20
2023-04-30T00:27:59.941Z,39.22
2023-04-30T00:30:27.973Z,39.04
2023-04-30T00:32:57.426Z,39.30
2023-04-30T00:35:25.634Z,39.24
2023-04-30T00:37:53.652Z,39.22
2023-04-30T00:40:22.088Z,39.07
2023-04-30T00:42:52.448Z,39.13
2023-04-30T00:45:22.172Z,39.14
2023-04-30T00:47:50.991Z,39.26
2023-04-30T00:50:20.622Z,39.22
2023-04-30T00:52:48.929Z,39.12
2023-04-30T00:55:17.924Z,39.20
2023-04-30T00:57:46.735Z,39.04
2023-04-30T01:00:15.702Z,39.01
2023-04-30T01:02:43.829Z,39.05
2023-04-30T01:05:12.773Z,39.02
2023-04-30T01:07:46.347Z,39.04
2023-04-30T01:10:15.538Z,39.08
2023-04-30T01:12:51.920Z,38.95
2023-04-30T01:15:28.885Z,39.08
2023-04-30T01:18:01.140Z,39.03
2023-04-30T01:20:31.057Z,38.98
2023-04-30T01:23:11.621Z,39.02
2023-04-30T01:26:09.076Z,38.62
2023-04-30T01:28:40.323Z,39.00
2023-04-30T01:31:14.687Z,38.84
2023-04-30T01:33:42.831Z,39.09
2023-04-30T01:36:36.424Z,38.59
2023-04-30T01:39:15.694Z,39.02
2023-04-30T01:41:54.389Z,38.85
2023-04-30T01:44:39.341Z,38.89
2023-04-30T01:47:14.242Z,38.94
2023-04-30T01:49:53.012Z,38.96
2023-04-30T01:52:31.773Z,38.94
2023-04-30T01:55:04.945Z,38.99
2023-04-30T01:57:36.293Z,39.00
2023-04-30T02:00:08.913Z,39.00
2023-04-30T02:02:37.057Z,38.91
2023-04-30T02:05:05.369Z,38.96
2023-04-30T02:07:40.677Z,38.93
2023-04-30T02:10:09.993Z,38.94
2023-04-30T02:12:38.040Z,38.82
2023-04-30T02:15:09.109Z,38.65
2023-04-30T02:17:37.215Z,38.80
2023-04-30T02:20:05.929Z,38.91
2023-04-30T02:22:34.037Z,38.89
2023-04-30T02:25:02.098Z,38.96
2023-04-30T02:27:32.490Z,38.84
2023-04-30T02:30:00.978Z,38.81
2023-04-30T02:32:30.819Z,38.96
2023-04-30T02:34:58.940Z,38.87
2023-04-30T02:37:27.016Z,38.95
2023-04-30T02:39:55.349Z,38.87
2023-04-30T02:42:23.613Z,38.84
2023-04-30T02:44:51.645Z,38.72
2023-04-30T02:47:19.712Z,38.80
2023-04-30T02:49:49.169Z,38.76
2023-04-30T02:52:17.235Z,38.91
2023-04-30T02:54:45.377Z,38.75
2023-04-30T02:57:13.411Z,38.87
2023-04-30T02:59:45.950Z,38.78
2023-04-30T03:02:14.317Z,38.74
2023-04-30T03:04:42.382Z,38.79
2023-04-30T03:07:11.858Z,38.76
2023-04-30T03:09:40.068Z,38.70
2023-04-30T03:12:08.194Z,38.79
2023-04-30T03:14:36.262Z,38.71
2023-04-30T03:17:04.369Z,38.77
2023-04-30T03:19:33.021Z,38.74
2023-04-30T03:22:01.465Z,38.73
2023-04-30T03:24:30.990Z,38.71
2023-04-30T03:26:59.087Z,38.69
2023-04-30T03:29:27.451Z,38.64
2023-04-30T03:31:55.528Z,38.70
2023-04-30T03:34:23.562Z,38.69
2023-04-30T03:36:51.828Z,38.58
2023-04-30T03:39:19.867Z,38.67
2023-04-30T03:41:49.270Z,38.70
2023-04-30T03:44:17.342Z,38.61
2023-04-30T03:46:45.508Z,38.65
2023-04-30T03:49:13.602Z,38.58
2023-04-30T03:51:42.194Z,38.67
2023-04-30T03:54:10.547Z,38.66
2023-04-30T03:56:39.149Z,38.59
2023-04-30T03:59:08.620Z,38.69
2023-04-30T04:01:36.850Z,38.55
2023-04-30T04:04:05.062Z,38.68
2023-04-30T04:06:33.410Z,38.73
2023-04-30T04:09:01.503Z,38.53
2023-04-30T04:11:29.664Z,38.61
2023-04-30T04:13:57.846Z,38.54
2023-04-30T04:16:27.525Z,38.47
2023-04-30T04:18:55.662Z,38.50
2023-04-30T04:21:24.670Z,38.51
2023-04-30T04:23:52.773Z,38.45
2023-04-30T04:26:21.957Z,38.50
2023-04-30T04:28:50.240Z,38.55
2023-04-30T04:31:18.435Z,38.54
2023-04-30T04:33:47.960Z,38.56
2023-04-30T04:36:16.304Z,38.48
2023-04-30T04:38:44.506Z,38.47
2023-04-30T04:41:12.666Z,38.48
2023-04-30T04:43:40.856Z,38.53
2023-04-30T04:46:10.132Z,38.57
2023-04-30T04:48:39.321Z,38.54
2023-04-30T04:51:08.874Z,38.53
2023-04-30T04:53:37.197Z,38.50
2023-04-30T04:56:05.642Z,38.46
2023-04-30T04:58:33.738Z,38.50
2023-04-30T05:01:01.993Z,38.42
2023-04-30T05:03:30.637Z,38.53
2023-04-30T05:05:58.937Z,38.49
2023-04-30T05:08:28.664Z,38.42
2023-04-30T05:10:56.785Z,38.45
2023-04-30T05:13:24.933Z,38.37
2023-04-30T05:15:54.644Z,38.36
2023-04-30T05:18:22.855Z,38.37
2023-04-30T05:20:50.996Z,38.32
2023-04-30T05:23:19.107Z,38.38
2023-04-30T05:25:53.299Z,38.38
2023-04-30T05:28:21.395Z,38.47
2023-04-30T05:30:49.473Z,38.37
2023-04-30T05:33:17.614Z,38.45
2023-04-30T05:35:45.867Z,38.31
2023-04-30T05:38:13.996Z,38.36
2023-04-30T05:40:42.368Z,38.39
2023-04-30T05:43:11.857Z,38.24
2023-04-30T05:45:40.036Z,38.28
2023-04-30T05:48:08.230Z,38.32
2023-04-30T05:50:36.628Z,38.33
2023-04-30T05:53:04.692Z,38.37
2023-04-30T05:55:32.833Z,38.24
2023-04-30T05:58:00.930Z,38.42
2023-04-30T06:00:30.397Z,38.30
2023-04-30T06:02:58.568Z,38.21
2023-04-30T06:05:26.783Z,38.28
2023-04-30T06:07:54.966Z,38.37
2023-04-30T06:10:23.139Z,38.26
2023-04-30T06:12:51.292Z,38.20
2023-04-30T06:15:19.671Z,38.25
2023-04-30T06:17:49.185Z,38.33
2023-04-30T06:20:17.461Z,38.15
2023-04-30T06:22:45.560Z,38.35
2023-04-30T06:25:13.629Z,38.23
2023-04-30T06:27:41.875Z,38.27
2023-04-30T06:30:10.848Z,38.25
2023-04-30T06:32:39.069Z,38.29
2023-04-30T06:35:09.553Z,38.22
2023-04-30T06:37:38.214Z,38.09
2023-04-30T06:40:07.595Z,38.25
2023-04-30T06:42:36.081Z,38.11
2023-04-30T06:45:06.696Z,37.96
2023-04-30T06:47:36.488Z,38.10
2023-04-30T06:50:05.465Z,38.08
2023-04-30T06:52:35.034Z,38.03
2023-04-30T06:55:03.568Z,38.07
2023-04-30T06:57:31.980Z,38.13
2023-04-30T07:00:00.695Z,38.03
2023-04-30T07:02:28.924Z,38.14
2023-04-30T07:04:57.132Z,38.14
2023-04-30T07:07:25.430Z,38.17
2023-04-30T07:09:55.222Z,38.00
2023-04-30T07:12:23.593Z,38.02
2023-04-30T07:14:51.687Z,37.97
2023-04-30T07:17:19.780Z,38.14
2023-04-30T07:19:47.848Z,38.06
2023-04-30T07:22:15.877Z,38.13
2023-04-30T07:24:43.934Z,38.05
2023-04-30T07:27:13.406Z,37.96
2023-04-30T07:29:41.652Z,38.02
2023-04-30T07:32:09.907Z,38.11
2023-04-30T07:34:38.421Z,38.06
2023-04-30T07:37:06.492Z,37.98
2023-04-30T07:39:34.569Z,37.95
2023-04-30T07:42:03.343Z,38.10
2023-04-30T07:44:33.824Z,38.05
2023-04-30T07:47:01.940Z,37.99
2023-04-30T07:49:30.319Z,38.14
2023-04-30T07:51:58.362Z,37.98
2023-04-30T07:54:26.460Z,37.92
2023-04-30T07:59:24.612Z,37.94
2023-04-30T08:01:54.079Z,38.06
2023-04-30T08:04:22.281Z,38.03
2023-04-30T08:06:50.647Z,38.03
2023-04-30T08:09:18.760Z,37.93
2023-04-30T08:11:46.845Z,37.89
2023-04-30T08:14:14.913Z,38.08
2023-04-30T08:16:42.965Z,37.56
2023-04-30T08:19:12.499Z,38.08
2023-04-30T08:21:40.810Z,37.92
2023-04-30T08:24:08.976Z,37.88
2023-04-30T08:26:37.025Z,37.87
2023-04-30T08:29:05.099Z,37.88
2023-04-30T08:31:33.278Z,37.92
2023-04-30T08:34:01.589Z,37.89
2023-04-30T08:36:31.033Z,37.85
2023-04-30T08:38:59.047Z,37.97
2023-04-30T08:41:31.611Z,37.80
2023-04-30T08:44:05.689Z,37.83
2023-04-30T08:46:37.900Z,37.86
2023-04-30T08:49:06.170Z,37.87
2023-04-30T08:51:36.408Z,37.92
2023-04-30T08:54:04.627Z,37.78
2023-04-30T08:56:33.768Z,37.83
2023-04-30T08:59:01.880Z,37.82
2023-04-30T09:01:31.313Z,37.87
2023-04-30T09:03:59.764Z,37.88
2023-04-30T09:06:28.443Z,37.84
2023-04-30T09:08:58.243Z,37.78
2023-04-30T09:11:27.805Z,37.75
2023-04-30T09:13:58.633Z,37.91
2023-04-30T09:16:27.959Z,37.80
2023-04-30T09:18:56.804Z,37.89
2023-04-30T09:21:35.323Z,37.66
2023-04-30T09:24:06.436Z,37.84
2023-04-30T09:26:35.882Z,37.93
2023-04-30T09:29:08.190Z,37.77
2023-04-30T09:31:36.821Z,37.89
2023-04-30T09:34:05.336Z,37.84
2023-04-30T09:36:33.970Z,37.92
2023-04-30T09:39:14.806Z,37.45
2023-04-30T09:41:43.388Z,37.73
2023-04-30T09:44:28.268Z,37.36
2023-04-30T09:46:57.433Z,37.75
2023-04-30T09:49:27.572Z,37.68
2023-04-30T09:51:57.170Z,37.72
2023-04-30T09:54:28.952Z,37.78
2023-04-30T09:56:59.400Z,37.70
2023-04-30T09:59:31.867Z,37.64
2023-04-30T10:02:01.576Z,37.72
2023-04-30T10:04:32.100Z,37.82
2023-04-30T10:07:03.288Z,37.67
2023-04-30T10:09:50.886Z,37.60
2023-04-30T10:12:27.354Z,37.71
2023-04-30T10:15:01.032Z,37.60
2023-04-30T10:17:35.050Z,37.71
2023-04-30T10:20:08.144Z,38.03
2023-04-30T10:22:36.557Z,37.75
2023-04-30T10:25:11.400Z,37.75
2023-04-30T10:27:40.254Z,37.62
2023-04-30T10:30:11.860Z,37.70
2023-04-30T10:32:48.161Z,37.71
2023-04-30T10:35:21.109Z,37.78
2023-04-30T10:37:54.885Z,37.72
2023-04-30T10:40:24.395Z,37.72
2023-04-30T10:42:55.987Z,37.77
2023-04-30T10:45:37.007Z,37.48
2023-04-30T10:48:05.499Z,37.89
2023-04-30T10:50:33.924Z,37.78
2023-04-30T10:53:05.437Z,37.67
2023-04-30T10:55:40.094Z,37.76
2023-04-30T10:58:25.295Z,37.37
2023-04-30T11:01:02.414Z,37.49
2023-04-30T11:03:31.498Z,37.62
2023-04-30T11:06:03.893Z,37.78
2023-04-30T11:08:35.943Z,37.69
2023-04-30T11:11:06.306Z,37.73
2023-04-30T11:13:42.555Z,37.58
2023-04-30T11:16:10.762Z,37.61
2023-04-30T11:18:43.898Z,37.67
2023-04-30T11:21:12.047Z,37.71
2023-04-30T11:23:44.338Z,37.71
2023-04-30T11:26:13.945Z,37.72
2023-04-30T11:28:52.560Z,37.66
2023-04-30T11:31:21.209Z,37.65
2023-04-30T11:33:50.453Z,37.71
2023-04-30T11:36:18.700Z,37.68
2023-04-30T11:38:46.942Z,37.78
2023-04-30T11:41:16.418Z,37.69
2023-04-30T11:43:44.496Z,37.66
2023-04-30T11:46:14.371Z,37.75
2023-04-30T11:48:44.917Z,37.70
2023-04-30T11:51:17.478Z,37.80
2023-04-30T11:53:47.475Z,37.76
2023-04-30T11:56:20.716Z,37.67
2023-04-30T11:58:49.647Z,37.67
2023-04-30T12:01:18.538Z,37.70
2023-04-30T12:03:48.411Z,37.71
2023-04-30T12:06:24.045Z,37.56
2023-04-30T12:08:55.476Z,37.73
2023-04-30T12:11:26.534Z,37.74
2023-04-30T12:13:55.927Z,37.77
2023-04-30T12:16:25.882Z,37.60
2023-04-30T12:18:54.073Z,37.63
2023-04-30T12:21:23.040Z,37.63
2023-04-30T12:23:51.169Z,37.66
2023-04-30T12:26:19.348Z,37.65
2023-04-30T12:28:50.648Z,37.77
2023-04-30T12:31:19.429Z,37.64
2023-04-30T12:33:56.532Z,37.45
2023-04-30T12:36:31.700Z,37.53
2023-04-30T12:39:13.162Z,37.53
2023-04-30T12:41:43.334Z,37.66
2023-04-30T12:44:21.570Z,37.46
2023-04-30T12:46:50.547Z,37.74
2023-04-30T12:49:26.320Z,37.55
2023-04-30T12:51:59.795Z,37.78
2023-04-30T12:54:29.073Z,37.66
2023-04-30T12:57:02.168Z,37.43
2023-04-30T12:59:32.801Z,37.57
2023-04-30T13:02:09.158Z,37.57
2023-04-30T13:04:37.823Z,37.65
2023-04-30T13:07:06.092Z,37.64
2023-04-30T13:09:34.678Z,37.71
2023-04-30T13:12:02.977Z,37.66
2023-04-30T13:14:33.202Z,37.72
2023-04-30T13:17:02.760Z,37.52
2023-04-30T13:19:30.775Z,37.51
2023-04-30T13:21:59.042Z,37.60
2023-04-30T13:24:27.140Z,37.62
2023-04-30T13:26:55.314Z,37.41
2023-04-30T13:29:23.365Z,37.50
2023-04-30T13:31:53.066Z,37.48
2023-04-30T13:34:21.319Z,37.52
2023-04-30T13:36:49.390Z,37.53
2023-04-30T13:39:17.446Z,37.46
2023-04-30T13:41:45.805Z,37.65
2023-04-30T13:44:13.807Z,37.57
2023-04-30T13:46:41.962Z,37.53
2023-04-30T13:49:11.387Z,37.50
2023-04-30T13:51:40.008Z,37.54
2023-04-30T13:54:08.141Z,37.50
2023-04-30T13:56:36.585Z,37.57
2023-04-30T13:59:04.744Z,37.58
2023-04-30T14:01:34.307Z,37.47
2023-04-30T14:04:02.901Z,37.46
2023-04-30T14:06:32.916Z,37.46
2023-04-30T14:09:01.122Z,37.52
2023-04-30T14:11:29.253Z,37.53
2023-04-30T14:13:58.208Z,37.54
2023-04-30T14:16:26.845Z,37.36
2023-04-30T14:18:54.978Z,37.50
2023-04-30T14:21:23.028Z,37.44
2023-04-30T14:23:52.493Z,37.51
2023-04-30T14:26:21.658Z,37.45
2023-04-30T14:28:49.746Z,37.59
2023-04-30T14:31:17.868Z,37.42
2023-04-30T14:33:45.934Z,37.50
2023-04-30T14:36:14.124Z,37.43
2023-04-30T14:38:42.156Z,37.41
2023-04-30T14:41:11.621Z,37.46
2023-04-30T14:43:39.810Z,37.51
2023-04-30T14:46:08.060Z,37.42
2023-04-30T14:48:36.489Z,37.45
2023-04-30T14:51:04.667Z,37.37
2023-04-30T14:53:33.113Z,37.37
2023-04-30T14:56:01.225Z,37.52
2023-04-30T14:58:30.669Z,37.41
2023-04-30T15:00:58.865Z,37.46
2023-04-30T15:03:27.159Z,37.39
2023-04-30T15:05:56.039Z,37.51
2023-04-30T15:08:24.245Z,37.49
2023-04-30T15:10:52.340Z,37.55
2023-04-30T15:13:21.083Z,37.62
2023-04-30T15:15:50.708Z,37.56
2023-04-30T15:18:18.753Z,37.54
2023-04-30T15:20:47.226Z,37.47
2023-04-30T15:23:15.282Z,37.62
2023-04-30T15:25:44.253Z,37.45
2023-04-30T15:28:12.348Z,37.49
2023-04-30T15:30:40.913Z,37.41
2023-04-30T15:33:10.438Z,37.58
2023-04-30T15:35:38.611Z,37.56
2023-04-30T15:38:06.746Z,37.45
2023-04-30T15:40:34.785Z,37.43
2023-04-30T15:43:02.857Z,37.49
2023-04-30T15:45:32.336Z,37.50
2023-04-30T15:48:00.531Z,37.54
2023-04-30T15:50:31.098Z,37.53
2023-04-30T15:52:59.343Z,37.63
2023-04-30T15:55:27.529Z,37.57
2023-04-30T15:57:55.560Z,37.49
2023-04-30T16:00:24.098Z,37.51
2023-04-30T16:02:52.585Z,37.49
2023-04-30T16:05:20.981Z,37.53
2023-04-30T16:07:50.640Z,37.53
2023-04-30T16:10:20.252Z,37.44
2023-04-30T16:12:48.636Z,37.56
2023-04-30T16:15:16.890Z,37.51
2023-04-30T16:17:45.059Z,37.55
2023-04-30T16:20:14.421Z,37.58
2023-04-30T16:22:42.557Z,37.60
2023-04-30T16:25:12.395Z,37.57
2023-04-30T16:27:40.560Z,37.53
2023-04-30T16:30:09.917Z,37.60
2023-04-30T16:32:38.120Z,37.53
2023-04-30T16:35:07.251Z,37.53
2023-04-30T16:37:35.961Z,37.54
2023-04-30T16:40:06.251Z,37.50
2023-04-30T16:42:36.335Z,37.53
2023-04-30T16:45:04.906Z,37.53
2023-04-30T16:47:33.096Z,37.59
2023-04-30T16:50:01.244Z,37.56
2023-04-30T16:52:29.828Z,37.51
2023-04-30T16:54:57.910Z,37.63
2023-04-30T16:57:26.243Z,37.50
2023-04-30T16:59:56.137Z,37.66
2023-04-30T17:02:24.643Z,37.61
2023-04-30T17:04:53.085Z,37.54
2023-04-30T17:07:21.630Z,37.45
2023-04-30T17:09:50.632Z,37.56
2023-04-30T17:12:18.722Z,37.61
2023-04-30T17:14:46.874Z,37.66
2023-04-30T17:17:16.344Z,37.67
2023-04-30T17:19:44.387Z,37.69
2023-04-30T17:22:13.212Z,37.72
2023-04-30T17:24:41.328Z,37.64
2023-04-30T17:27:09.538Z,37.69
2023-04-30T17:29:37.697Z,37.70
2023-04-30T17:32:06.130Z,37.68
2023-04-30T17:34:35.728Z,37.69
2023-04-30T17:37:03.836Z,37.73
2023-04-30T17:39:32.669Z,37.58
2023-04-30T17:42:00.968Z,37.59
2023-04-30T17:44:31.461Z,37.62
2023-04-30T17:46:59.509Z,37.68
2023-04-30T17:49:28.597Z,37.68
2023-04-30T17:51:59.201Z,37.60
2023-04-30T17:54:27.334Z,37.67
2023-04-30T17:56:55.360Z,37.80
2023-04-30T17:59:23.440Z,37.67
2023-04-30T18:01:51.558Z,37.78
2023-04-30T18:04:20.788Z,37.65
2023-04-30T18:06:49.395Z,37.63
2023-04-30T18:09:19.657Z,37.70
2023-04-30T18:11:47.728Z,37.73
2023-04-30T18:14:15.800Z,37.75
2023-04-30T18:16:43.905Z,37.57
2023-04-30T18:19:12.567Z,37.73
2023-04-30T18:21:40.812Z,37.76
2023-04-30T18:24:08.921Z,37.76
2023-04-30T18:26:38.630Z,37.75
2023-04-30T18:29:06.666Z,37.83
2023-04-30T18:31:36.849Z,37.78
2023-04-30T18:34:04.973Z,37.83
2023-04-30T18:36:33.122Z,37.85
2023-04-30T18:39:01.180Z,37.81
2023-04-30T18:41:29.292Z,37.78
2023-04-30T18:43:58.740Z,37.76
2023-04-30T18:46:27.209Z,37.99
2023-04-30T18:48:56.333Z,37.84
2023-04-30T18:51:24.376Z,37.80
2023-04-30T18:53:52.595Z,37.84
2023-04-30T18:56:22.112Z,37.89
2023-04-30T18:58:50.211Z,37.80
2023-04-30T19:01:21.493Z,37.81
2023-04-30T19:03:49.659Z,37.82
2023-04-30T19:06:17.904Z,37.86
2023-04-30T19:08:46.830Z,37.91
2023-04-30T19:11:15.159Z,37.87
2023-04-30T19:13:43.251Z,37.83
2023-04-30T19:16:12.646Z,37.80
2023-04-30T19:18:42.145Z,37.83
2023-04-30T19:21:12.993Z,37.85
2023-04-30T19:23:41.334Z,37.94
2023-04-30T19:26:09.386Z,37.82
2023-04-30T19:28:37.450Z,37.97
2023-04-30T19:31:06.129Z,37.88
2023-04-30T19:33:38.613Z,37.93
2023-04-30T19:36:09.141Z,37.89
2023-04-30T19:38:37.203Z,37.97
2023-04-30T19:41:05.274Z,37.93
2023-04-30T19:43:33.406Z,37.96
2023-04-30T19:46:02.283Z,37.93
2023-04-30T19:48:31.428Z,37.89
2023-04-30T19:50:59.648Z,37.92
2023-04-30T19:53:29.205Z,37.92
2023-04-30T19:55:57.406Z,38.00
2023-04-30T19:58:25.441Z,37.96
2023-04-30T20:00:53.618Z,38.00
2023-04-30T20:03:25.282Z,37.87
2023-04-30T20:05:54.237Z,37.96
2023-04-30T20:08:22.920Z,37.96
2023-04-30T20:10:52.367Z,37.91
2023-04-30T20:13:21.108Z,37.87
2023-04-30T20:15:49.335Z,37.96
2023-04-30T20:18:17.491Z,38.01
2023-04-30T20:20:45.630Z,38.04
2023-04-30T20:23:15.228Z,37.91
2023-04-30T20:25:45.438Z,38.06
2023-04-30T20:28:15.976Z,38.02
2023-04-30T20:30:44.612Z,38.08
2023-04-30T20:33:13.640Z,38.01
2023-04-30T20:35:42.288Z,38.01
2023-04-30T20:38:10.831Z,38.15
2023-04-30T20:40:40.607Z,38.02
2023-04-30T20:43:10.356Z,38.03
2023-04-30T20:45:40.163Z,37.95
2023-04-30T20:48:09.195Z,38.09
2023-04-30T20:50:38.797Z,37.96
2023-04-30T20:53:08.370Z,38.02
2023-04-30T20:55:37.642Z,38.01
2023-04-30T20:58:05.907Z,38.04
2023-04-30T21:00:33.960Z,37.93
2023-04-30T21:03:03.535Z,37.96
2023-04-30T21:05:32.296Z,38.01
2023-04-30T21:08:01.870Z,37.98
2023-04-30T21:10:36.394Z,38.07
2023-04-30T21:13:05.996Z,37.95
2023-04-30T21:15:36.387Z,38.00
2023-04-30T21:18:06.079Z,37.94
2023-04-30T21:20:34.169Z,38.00
2023-04-30T21:23:03.479Z,38.07
2023-04-30T21:25:31.913Z,37.93
2023-04-30T21:28:00.047Z,38.12
2023-04-30T21:30:28.146Z,38.13
2023-04-30T21:32:58.812Z,38.08
2023-04-30T21:35:33.072Z,38.05
2023-04-30T21:38:01.254Z,38.11
2023-04-30T21:40:32.155Z,38.05
2023-04-30T21:43:00.234Z,38.09
2023-04-30T21:45:28.402Z,38.12
2023-04-30T21:47:56.586Z,37.98
2023-04-30T21:50:25.390Z,38.04
2023-04-30T21:52:54.827Z,38.08
2023-04-30T21:55:23.002Z,38.05
2023-04-30T21:57:51.945Z,38.11
2023-04-30T22:00:21.155Z,38.07
2023-04-30T22:02:49.774Z,38.09
2023-04-30T22:07:46.877Z,38.12
2023-04-30T22:10:16.455Z,38.06
2023-04-30T22:12:47.395Z,38.26
2023-04-30T22:15:15.960Z,38.17
2023-04-30T22:17:44.355Z,38.06
2023-04-30T22:20:13.537Z,38.16
2023-04-30T22:22:41.815Z,38.08
2023-04-30T22:25:10.548Z,38.02
2023-04-30T22:27:40.093Z,38.14
2023-04-30T22:30:09.256Z,38.19
2023-04-30T22:32:37.400Z,38.09
2023-04-30T22:35:06.900Z,38.10
2023-04-30T22:37:38.580Z,38.16
2023-04-30T22:40:07.873Z,38.07
2023-04-30T22:42:36.550Z,38.20
2023-04-30T22:45:07.361Z,38.11
2023-04-30T22:47:35.608Z,38.18
2023-04-30T22:50:04.860Z,38.13
2023-04-30T22:52:33.307Z,38.16
2023-04-30T22:55:03.092Z,38.19
2023-04-30T22:57:31.376Z,38.08
2023-04-30T22:59:59.485Z,38.23
2023-04-30T23:02:29.241Z,38.09
2023-04-30T23:04:57.380Z,38.17
2023-04-30T23:07:26.029Z,38.21
2023-04-30T23:09:54.468Z,38.21
2023-04-30T23:12:23.411Z,38.28
2023-04-30T23:14:51.742Z,38.16
2023-04-30T23:17:19.846Z,38.27
2023-04-30T23:19:49.423Z,38.25
2023-04-30T23:22:18.585Z,38.23
2023-04-30T23:24:46.699Z,38.23
2023-04-30T23:27:14.769Z,38.29
2023-04-30T23:29:43.045Z,38.22
2023-04-30T23:32:11.323Z,38.21
2023-04-30T23:34:39.471Z,38.31
2023-04-30T23:37:08.970Z,38.36
2023-04-30T23:39:37.084Z,38.36
2023-04-30T23:42:05.272Z,38.32
2023-04-30T23:44:33.424Z,38.33
2023-04-30T23:47:02.088Z,38.25
2023-04-30T23:49:30.472Z,38.14
2023-04-30T23:51:58.625Z,38.34
2023-04-30T23:54:28.802Z,38.41
2023-04-30T23:56:56.896Z,38.36
2023-04-30T23:59:26.118Z,38.32
